sensor_id;sensor_type;location;lat;lon;timestamp;pressure;altitude;pressure_sealevel;temperature;humidity
62694;BME280;48759;52.544;13.418;2023-03-25T00:02:19;99637.94;;;16.02;59.08
62694;BME280;48759;52.544;13.418;2023-03-25T00:04:49;99628.56;;;15.66;59.77
62694;BME280;48759;52.544;13.418;2023-03-25T00:07:16;99641.69;;;15.44;61.22
62694;BME280;48759;52.544;13.418;2023-03-25T00:09:44;99634.63;;;14.99;64.12
62694;BME280;48759;52.544;13.418;2023-03-25T00:12:11;99634.75;;;15.78;61.44
62694;BME280;48759;52.544;13.418;2023-03-25T00:14:37;99646.75;;;14.93;65.38
62694;BME280;48759;52.544;13.418;2023-03-25T00:17:04;99635.91;;;15.87;61.72
62694;BME280;48759;52.544;13.418;2023-03-25T00:19:33;99634.31;;;14.96;64.20
62694;BME280;48759;52.544;13.418;2023-03-25T00:22:00;99628.75;;;15.22;64.55
62694;BME280;48759;52.544;13.418;2023-03-25T00:24:27;99615.88;;;15.75;63.06
62694;BME280;48759;52.544;13.418;2023-03-25T00:26:54;99618.69;;;15.80;62.15
62694;BME280;48759;52.544;13.418;2023-03-25T00:29:20;99616.72;;;15.39;63.72
62694;BME280;48759;52.544;13.418;2023-03-25T00:31:47;99620.28;;;15.71;62.72
62694;BME280;48759;52.544;13.418;2023-03-25T00:34:14;99624.34;;;15.26;64.35
62694;BME280;48759;52.544;13.418;2023-03-25T00:36:42;99628.03;;;15.05;64.98
62694;BME280;48759;52.544;13.418;2023-03-25T00:39:09;99630.59;;;15.44;64.15
62694;BME280;48759;52.544;13.418;2023-03-25T00:41:36;99621.50;;;15.48;64.48
62694;BME280;48759;52.544;13.418;2023-03-25T00:44:06;99626.81;;;15.55;63.57
62694;BME280;48759;52.544;13.418;2023-03-25T00:46:33;99630.63;;;15.17;64.76
62694;BME280;48759;52.544;13.418;2023-03-25T00:49:00;99629.47;;;15.40;64.78
62694;BME280;48759;52.544;13.418;2023-03-25T00:51:27;99631.59;;;14.74;66.70
62694;BME280;48759;52.544;13.418;2023-03-25T00:53:58;99636.09;;;15.34;65.40
62694;BME280;48759;52.544;13.418;2023-03-25T00:56:26;99634.97;;;14.81;67.33
62694;BME280;48759;52.544;13.418;2023-03-25T00:58:53;99631.06;;;14.77;68.67
62694;BME280;48759;52.544;13.418;2023-03-25T01:01:22;99646.03;;;14.76;68.50
62694;BME280;48759;52.544;13.418;2023-03-25T01:03:52;99640.75;;;14.09;71.20
62694;BME280;48759;52.544;13.418;2023-03-25T01:06:23;99640.34;;;14.87;68.26
62694;BME280;48759;52.544;13.418;2023-03-25T01:08:54;99637.78;;;14.37;69.89
62694;BME280;48759;52.544;13.418;2023-03-25T01:11:24;99649.41;;;13.57;75.16
62694;BME280;48759;52.544;13.418;2023-03-25T01:13:53;99642.75;;;14.13;74.16
62694;BME280;48759;52.544;13.418;2023-03-25T01:16:21;99631.59;;;14.74;70.82
62694;BME280;48759;52.544;13.418;2023-03-25T01:18:48;99639.13;;;14.78;70.02
62694;BME280;48759;52.544;13.418;2023-03-25T01:21:15;99639.72;;;14.59;69.97
62694;BME280;48759;52.544;13.418;2023-03-25T01:23:42;99633.66;;;14.18;73.50
62694;BME280;48759;52.544;13.418;2023-03-25T01:26:09;99622.72;;;14.72;71.52
62694;BME280;48759;52.544;13.418;2023-03-25T01:28:39;99628.00;;;15.00;69.50
62694;BME280;48759;52.544;13.418;2023-03-25T01:31:08;99624.66;;;14.49;71.35
62694;BME280;48759;52.544;13.418;2023-03-25T01:33:35;99615.91;;;14.58;71.38
62694;BME280;48759;52.544;13.418;2023-03-25T01:36:03;99618.38;;;14.32;71.50
62694;BME280;48759;52.544;13.418;2023-03-25T01:38:33;99615.66;;;14.37;71.27
62694;BME280;48759;52.544;13.418;2023-03-25T01:41:01;99611.94;;;14.48;72.09
62694;BME280;48759;52.544;13.418;2023-03-25T01:43:27;99599.19;;;14.04;71.64
62694;BME280;48759;52.544;13.418;2023-03-25T01:45:56;99600.38;;;14.35;72.85
62694;BME280;48759;52.544;13.418;2023-03-25T01:48:25;99588.94;;;14.75;70.93
62694;BME280;48759;52.544;13.418;2023-03-25T01:51:00;99592.50;;;14.00;75.00
62694;BME280;48759;52.544;13.418;2023-03-25T01:53:29;99595.38;;;15.12;68.53
62694;BME280;48759;52.544;13.418;2023-03-25T01:55:59;99588.13;;;15.06;68.57
62694;BME280;48759;52.544;13.418;2023-03-25T01:58:30;99594.81;;;14.51;70.66
62694;BME280;48759;52.544;13.418;2023-03-25T02:01:00;99595.22;;;14.92;69.73
62694;BME280;48759;52.544;13.418;2023-03-25T02:03:29;99596.31;;;14.42;71.27
62694;BME280;48759;52.544;13.418;2023-03-25T02:06:02;99594.09;;;14.39;70.73
62694;BME280;48759;52.544;13.418;2023-03-25T02:08:31;99591.47;;;13.84;73.77
62694;BME280;48759;52.544;13.418;2023-03-25T02:10:58;99581.28;;;13.51;74.34
62694;BME280;48759;52.544;13.418;2023-03-25T02:13:25;99581.78;;;13.87;73.88
62694;BME280;48759;52.544;13.418;2023-03-25T02:16:16;99577.31;;;14.24;73.07
62694;BME280;48759;52.544;13.418;2023-03-25T02:18:52;99569.78;;;14.68;71.27
62694;BME280;48759;52.544;13.418;2023-03-25T02:21:50;99570.16;;;14.06;73.39
62694;BME280;48759;52.544;13.418;2023-03-25T02:28:00;99564.25;;;15.00;68.97
62694;BME280;48759;52.544;13.418;2023-03-25T02:30:34;99564.41;;;15.20;68.55
62694;BME280;48759;52.544;13.418;2023-03-25T02:33:30;99557.84;;;14.95;68.00
62694;BME280;48759;52.544;13.418;2023-03-25T02:36:27;99560.91;;;14.98;68.65
62694;BME280;48759;52.544;13.418;2023-03-25T02:39:06;99551.69;;;15.19;66.65
62694;BME280;48759;52.544;13.418;2023-03-25T02:41:40;99556.66;;;15.59;65.52
62694;BME280;48759;52.544;13.418;2023-03-25T02:44:13;99546.06;;;15.09;66.71
62694;BME280;48759;52.544;13.418;2023-03-25T02:46:48;99544.06;;;15.05;66.44
62694;BME280;48759;52.544;13.418;2023-03-25T02:49:21;99531.59;;;15.02;67.98
62694;BME280;48759;52.544;13.418;2023-03-25T02:51:53;99535.97;;;15.77;64.93
62694;BME280;48759;52.544;13.418;2023-03-25T02:54:24;99539.75;;;15.61;64.95
62694;BME280;48759;52.544;13.418;2023-03-25T02:56:53;99542.59;;;15.29;65.34
62694;BME280;48759;52.544;13.418;2023-03-25T02:59:22;99531.03;;;15.37;65.54
62694;BME280;48759;52.544;13.418;2023-03-25T03:01:50;99530.41;;;15.30;65.54
62694;BME280;48759;52.544;13.418;2023-03-25T03:04:23;99529.44;;;15.09;67.28
62694;BME280;48759;52.544;13.418;2023-03-25T03:06:50;99530.09;;;15.26;65.98
62694;BME280;48759;52.544;13.418;2023-03-25T03:09:26;99534.09;;;15.88;64.98
62694;BME280;48759;52.544;13.418;2023-03-25T03:12:09;99531.72;;;15.59;64.44
62694;BME280;48759;52.544;13.418;2023-03-25T03:14:51;99533.97;;;16.20;62.43
62694;BME280;48759;52.544;13.418;2023-03-25T03:17:25;99525.66;;;16.25;61.69
62694;BME280;48759;52.544;13.418;2023-03-25T03:19:54;99530.72;;;16.53;61.11
62694;BME280;48759;52.544;13.418;2023-03-25T03:22:34;99534.41;;;15.12;64.78
62694;BME280;48759;52.544;13.418;2023-03-25T03:25:09;99540.91;;;14.91;68.82
62694;BME280;48759;52.544;13.418;2023-03-25T03:27:45;99549.94;;;14.81;70.72
62694;BME280;48759;52.544;13.418;2023-03-25T03:30:17;99538.88;;;14.81;75.17
62694;BME280;48759;52.544;13.418;2023-03-25T03:32:48;99544.28;;;14.98;73.90
62694;BME280;48759;52.544;13.418;2023-03-25T03:35:21;99552.69;;;15.40;73.17
62694;BME280;48759;52.544;13.418;2023-03-25T03:37:51;99547.19;;;15.13;77.98
62694;BME280;48759;52.544;13.418;2023-03-25T03:40:25;99551.53;;;14.45;84.60
62694;BME280;48759;52.544;13.418;2023-03-25T03:42:55;99541.94;;;14.53;82.97
62694;BME280;48759;52.544;13.418;2023-03-25T03:45:28;99544.88;;;15.00;79.41
62694;BME280;48759;52.544;13.418;2023-03-25T03:47:58;99549.91;;;15.08;79.41
62694;BME280;48759;52.544;13.418;2023-03-25T03:50:29;99545.59;;;15.22;79.31
62694;BME280;48759;52.544;13.418;2023-03-25T03:53:02;99555.09;;;14.68;87.92
62694;BME280;48759;52.544;13.418;2023-03-25T03:55:35;99553.50;;;14.72;87.95
62694;BME280;48759;52.544;13.418;2023-03-25T03:58:07;99546.75;;;14.63;91.96
62694;BME280;48759;52.544;13.418;2023-03-25T04:00:37;99546.97;;;13.86;100.00
62694;BME280;48759;52.544;13.418;2023-03-25T04:03:11;99538.91;;;13.84;100.00
62694;BME280;48759;52.544;13.418;2023-03-25T04:05:42;99537.09;;;14.43;98.59
62694;BME280;48759;52.544;13.418;2023-03-25T04:08:13;99538.66;;;14.07;100.00
62694;BME280;48759;52.544;13.418;2023-03-25T04:10:51;99539.09;;;14.75;96.75
62694;BME280;48759;52.544;13.418;2023-03-25T04:13:20;99537.47;;;14.03;100.00
62694;BME280;48759;52.544;13.418;2023-03-25T04:15:48;99529.13;;;14.74;99.25
62694;BME280;48759;52.544;13.418;2023-03-25T04:18:16;99538.94;;;14.11;100.00
62694;BME280;48759;52.544;13.418;2023-03-25T04:20:47;99536.09;;;14.81;98.35
62694;BME280;48759;52.544;13.418;2023-03-25T04:23:14;99541.09;;;14.04;100.00
62694;BME280;48759;52.544;13.418;2023-03-25T04:25:41;99542.84;;;14.37;99.37
62694;BME280;48759;52.544;13.418;2023-03-25T04:28:09;99543.28;;;14.50;97.68
62694;BME280;48759;52.544;13.418;2023-03-25T04:30:38;99544.78;;;14.36;100.00
62694;BME280;48759;52.544;13.418;2023-03-25T04:33:05;99553.00;;;13.83;100.00
62694;BME280;48759;52.544;13.418;2023-03-25T04:35:32;99547.38;;;14.21;99.66
62694;BME280;48759;52.544;13.418;2023-03-25T04:37:59;99544.75;;;14.58;94.57
62694;BME280;48759;52.544;13.418;2023-03-25T04:40:25;99546.56;;;13.99;99.28
62694;BME280;48759;52.544;13.418;2023-03-25T04:42:52;99536.28;;;14.70;93.77
62694;BME280;48759;52.544;13.418;2023-03-25T04:45:22;99537.94;;;14.17;94.40
62694;BME280;48759;52.544;13.418;2023-03-25T04:47:50;99546.22;;;14.66;90.74
62694;BME280;48759;52.544;13.418;2023-03-25T04:50:21;99550.72;;;14.72;92.34
62694;BME280;48759;52.544;13.418;2023-03-25T04:52:48;99544.19;;;13.86;99.48
62694;BME280;48759;52.544;13.418;2023-03-25T04:55:15;99541.16;;;14.36;93.82
62694;BME280;48759;52.544;13.418;2023-03-25T04:57:44;99534.22;;;14.06;95.81
62694;BME280;48759;52.544;13.418;2023-03-25T05:00:12;99538.13;;;13.50;100.00
62694;BME280;48759;52.544;13.418;2023-03-25T05:02:43;99527.25;;;13.60;100.00
62694;BME280;48759;52.544;13.418;2023-03-25T05:05:11;99526.47;;;13.87;98.23
62694;BME280;48759;52.544;13.418;2023-03-25T05:07:42;99537.69;;;13.20;100.00
62694;BME280;48759;52.544;13.418;2023-03-25T05:10:11;99535.69;;;13.92;96.84
62694;BME280;48759;52.544;13.418;2023-03-25T05:12:38;99527.38;;;14.14;94.23
62694;BME280;48759;52.544;13.418;2023-03-25T05:15:06;99540.19;;;13.38;100.00
62694;BME280;48759;52.544;13.418;2023-03-25T05:17:34;99542.00;;;14.36;91.55
62694;BME280;48759;52.544;13.418;2023-03-25T05:20:02;99535.16;;;14.17;92.25
62694;BME280;48759;52.544;13.418;2023-03-25T05:22:31;99526.19;;;13.83;95.29
62694;BME280;48759;52.544;13.418;2023-03-25T05:24:57;99534.66;;;13.98;90.71
62694;BME280;48759;52.544;13.418;2023-03-25T05:27:27;99531.91;;;13.76;95.01
62694;BME280;48759;52.544;13.418;2023-03-25T05:29:54;99528.16;;;13.49;96.78
62694;BME280;48759;52.544;13.418;2023-03-25T05:32:22;99530.31;;;14.29;90.23
62694;BME280;48759;52.544;13.418;2023-03-25T05:34:50;99528.00;;;14.21;90.31
62694;BME280;48759;52.544;13.418;2023-03-25T05:37:18;99531.00;;;13.93;90.13
62694;BME280;48759;52.544;13.418;2023-03-25T05:39:45;99527.66;;;14.39;88.47
62694;BME280;48759;52.544;13.418;2023-03-25T05:42:12;99525.28;;;13.99;90.17
62694;BME280;48759;52.544;13.418;2023-03-25T05:44:39;99528.84;;;14.75;83.38
62694;BME280;48759;52.544;13.418;2023-03-25T05:47:11;99536.56;;;15.00;81.95
62694;BME280;48759;52.544;13.418;2023-03-25T05:49:37;99529.94;;;14.74;79.42
62694;BME280;48759;52.544;13.418;2023-03-25T05:52:07;99535.53;;;14.47;82.04
62694;BME280;48759;52.544;13.418;2023-03-25T05:54:37;99547.72;;;13.81;85.77
62694;BME280;48759;52.544;13.418;2023-03-25T05:57:06;99545.34;;;14.92;80.36
62694;BME280;48759;52.544;13.418;2023-03-25T05:59:32;99545.13;;;14.99;79.48
62694;BME280;48759;52.544;13.418;2023-03-25T06:02:03;99549.09;;;14.27;80.81
62694;BME280;48759;52.544;13.418;2023-03-25T06:04:32;99550.50;;;14.78;79.55
62694;BME280;48759;52.544;13.418;2023-03-25T06:07:04;99563.75;;;14.49;77.22
62694;BME280;48759;52.544;13.418;2023-03-25T06:09:33;99557.44;;;14.81;77.06
62694;BME280;48759;52.544;13.418;2023-03-25T06:12:02;99552.94;;;14.75;76.47
62694;BME280;48759;52.544;13.418;2023-03-25T06:14:29;99555.63;;;14.43;77.94
62694;BME280;48759;52.544;13.418;2023-03-25T06:17:16;99569.19;;;14.93;74.61
62694;BME280;48759;52.544;13.418;2023-03-25T06:19:43;99574.84;;;13.46;83.10
62694;BME280;48759;52.544;13.418;2023-03-25T06:22:10;99570.47;;;13.66;84.07
62694;BME280;48759;52.544;13.418;2023-03-25T06:24:38;99565.00;;;14.37;77.47
62694;BME280;48759;52.544;13.418;2023-03-25T06:27:09;99571.72;;;13.97;77.17
62694;BME280;48759;52.544;13.418;2023-03-25T06:29:37;99571.34;;;14.86;73.82
62694;BME280;48759;52.544;13.418;2023-03-25T06:32:06;99570.03;;;14.40;75.42
62694;BME280;48759;52.544;13.418;2023-03-25T06:34:33;99576.69;;;14.44;74.37
62694;BME280;48759;52.544;13.418;2023-03-25T06:37:00;99573.06;;;13.95;76.12
62694;BME280;48759;52.544;13.418;2023-03-25T06:39:27;99571.41;;;13.94;76.56
62694;BME280;48759;52.544;13.418;2023-03-25T06:41:55;99576.56;;;15.14;71.56
62694;BME280;48759;52.544;13.418;2023-03-25T06:44:23;99571.91;;;13.91;75.73
62694;BME280;48759;52.544;13.418;2023-03-25T06:46:50;99576.88;;;14.86;72.25
62694;BME280;48759;52.544;13.418;2023-03-25T06:49:17;99581.22;;;14.77;71.57
62694;BME280;48759;52.544;13.418;2023-03-25T06:51:44;99579.09;;;14.89;70.88
62694;BME280;48759;52.544;13.418;2023-03-25T06:54:10;99571.28;;;14.81;70.17
62694;BME280;48759;52.544;13.418;2023-03-25T06:56:37;99566.25;;;14.73;70.91
62694;BME280;48759;52.544;13.418;2023-03-25T06:59:04;99568.69;;;14.96;70.58
62694;BME280;48759;52.544;13.418;2023-03-25T07:01:32;99566.97;;;15.59;68.01
62694;BME280;48759;52.544;13.418;2023-03-25T07:04:02;99571.78;;;15.37;67.57
62694;BME280;48759;52.544;13.418;2023-03-25T07:06:30;99577.97;;;15.49;67.86
62694;BME280;48759;52.544;13.418;2023-03-25T07:08:57;99575.16;;;13.88;71.55
62694;BME280;48759;52.544;13.418;2023-03-25T07:11:25;99580.16;;;15.47;68.69
62694;BME280;48759;52.544;13.418;2023-03-25T07:13:52;99579.06;;;16.57;63.18
62694;BME280;48759;52.544;13.418;2023-03-25T07:16:19;99590.72;;;16.64;63.61
62694;BME280;48759;52.544;13.418;2023-03-25T07:18:48;99584.56;;;16.47;64.18
62694;BME280;48759;52.544;13.418;2023-03-25T07:21:16;99586.56;;;15.47;65.88
62694;BME280;48759;52.544;13.418;2023-03-25T07:23:42;99590.03;;;15.33;65.41
62694;BME280;48759;52.544;13.418;2023-03-25T07:26:09;99598.31;;;15.27;67.13
62694;BME280;48759;52.544;13.418;2023-03-25T07:28:37;99593.78;;;15.95;63.93
62694;BME280;48759;52.544;13.418;2023-03-25T07:31:06;99582.75;;;15.58;64.47
62694;BME280;48759;52.544;13.418;2023-03-25T07:33:33;99598.63;;;17.13;60.66
62694;BME280;48759;52.544;13.418;2023-03-25T07:36:02;99578.97;;;16.32;62.12
62694;BME280;48759;52.544;13.418;2023-03-25T07:38:30;99595.72;;;16.57;60.46
62694;BME280;48759;52.544;13.418;2023-03-25T07:40:56;99608.50;;;16.58;59.90
62694;BME280;48759;52.544;13.418;2023-03-25T07:43:23;99596.72;;;16.21;59.66
62694;BME280;48759;52.544;13.418;2023-03-25T07:45:50;99590.66;;;16.39;60.12
62694;BME280;48759;52.544;13.418;2023-03-25T07:48:17;99594.72;;;17.14;57.03
62694;BME280;48759;52.544;13.418;2023-03-25T07:50:44;99592.91;;;16.37;58.10
62694;BME280;48759;52.544;13.418;2023-03-25T07:53:15;99588.44;;;16.36;57.07
62694;BME280;48759;52.544;13.418;2023-03-25T07:55:41;99597.97;;;16.60;58.58
62694;BME280;48759;52.544;13.418;2023-03-25T07:58:09;99599.91;;;16.70;56.55
62694;BME280;48759;52.544;13.418;2023-03-25T08:00:36;99600.13;;;16.43;57.08
62694;BME280;48759;52.544;13.418;2023-03-25T08:03:03;99601.91;;;16.95;55.50
62694;BME280;48759;52.544;13.418;2023-03-25T08:05:30;99592.38;;;16.45;55.86
62694;BME280;48759;52.544;13.418;2023-03-25T08:07:57;99608.91;;;17.43;55.12
62694;BME280;48759;52.544;13.418;2023-03-25T08:10:26;99604.06;;;18.09;52.06
62694;BME280;48759;52.544;13.418;2023-03-25T08:12:53;99610.03;;;17.16;52.67
62694;BME280;48759;52.544;13.418;2023-03-25T08:15:20;99600.22;;;17.90;52.23
62694;BME280;48759;52.544;13.418;2023-03-25T08:17:49;99609.13;;;16.96;52.24
62694;BME280;48759;52.544;13.418;2023-03-25T08:20:16;99602.78;;;17.36;52.00
62694;BME280;48759;52.544;13.418;2023-03-25T08:22:44;99613.63;;;17.12;52.56
62694;BME280;48759;52.544;13.418;2023-03-25T08:25:11;99602.78;;;17.26;61.25
62694;BME280;48759;52.544;13.418;2023-03-25T08:27:40;99615.78;;;18.01;55.75
62694;BME280;48759;52.544;13.418;2023-03-25T08:30:07;99603.38;;;16.25;54.22
62694;BME280;48759;52.544;13.418;2023-03-25T08:32:35;99600.34;;;16.31;53.14
62694;BME280;48759;52.544;13.418;2023-03-25T08:35:03;99600.97;;;16.43;52.42
62694;BME280;48759;52.544;13.418;2023-03-25T08:37:30;99601.88;;;16.74;53.15
62694;BME280;48759;52.544;13.418;2023-03-25T08:39:59;99599.16;;;17.05;51.57
62694;BME280;48759;52.544;13.418;2023-03-25T08:42:26;99610.28;;;17.40;51.27
62694;BME280;48759;52.544;13.418;2023-03-25T08:44:54;99593.03;;;17.64;50.23
62694;BME280;48759;52.544;13.418;2023-03-25T08:47:21;99601.88;;;16.74;51.29
62694;BME280;48759;52.544;13.418;2023-03-25T08:49:47;99597.13;;;16.65;50.18
62694;BME280;48759;52.544;13.418;2023-03-25T08:52:14;99599.09;;;16.69;51.18
62694;BME280;48759;52.544;13.418;2023-03-25T08:54:41;99602.53;;;17.32;50.50
62694;BME280;48759;52.544;13.418;2023-03-25T08:57:16;99592.16;;;17.73;49.25
62694;BME280;48759;52.544;13.418;2023-03-25T08:59:53;99602.78;;;17.05;49.41
62694;BME280;48759;52.544;13.418;2023-03-25T09:02:20;99585.97;;;16.50;50.14
62694;BME280;48759;52.544;13.418;2023-03-25T09:04:47;99581.84;;;17.89;48.01
62694;BME280;48759;52.544;13.418;2023-03-25T09:07:14;99600.56;;;17.23;49.46
62694;BME280;48759;52.544;13.418;2023-03-25T09:09:44;99589.69;;;18.46;47.27
62694;BME280;48759;52.544;13.418;2023-03-25T09:12:11;99597.13;;;18.07;47.81
62694;BME280;48759;52.544;13.418;2023-03-25T09:14:38;99594.25;;;18.22;46.97
62694;BME280;48759;52.544;13.418;2023-03-25T09:17:06;99598.94;;;18.42;46.77
62694;BME280;48759;52.544;13.418;2023-03-25T09:19:34;99585.56;;;18.49;46.36
62694;BME280;48759;52.544;13.418;2023-03-25T09:22:02;99569.13;;;17.27;47.67
62694;BME280;48759;52.544;13.418;2023-03-25T09:24:29;99577.13;;;15.95;49.26
62694;BME280;48759;52.544;13.418;2023-03-25T09:26:58;99593.38;;;16.24;49.89
62694;BME280;48759;52.544;13.418;2023-03-25T09:29:26;99579.75;;;16.17;50.07
62694;BME280;48759;52.544;13.418;2023-03-25T09:31:53;99578.66;;;15.66;51.76
62694;BME280;48759;52.544;13.418;2023-03-25T09:34:24;99602.31;;;14.83;54.07
62694;BME280;48759;52.544;13.418;2023-03-25T09:36:51;99612.97;;;16.07;53.20
62694;BME280;48759;52.544;13.418;2023-03-25T09:39:18;99601.28;;;15.53;59.80
62694;BME280;48759;52.544;13.418;2023-03-25T09:41:59;99617.31;;;15.46;61.38
62694;BME280;48759;52.544;13.418;2023-03-25T09:44:29;99602.88;;;15.81;60.48
62694;BME280;48759;52.544;13.418;2023-03-25T09:47:00;99607.19;;;16.14;58.08
62694;BME280;48759;52.544;13.418;2023-03-25T09:49:36;99611.94;;;15.71;57.18
62694;BME280;48759;52.544;13.418;2023-03-25T09:52:06;99605.28;;;16.97;54.08
62694;BME280;48759;52.544;13.418;2023-03-25T09:54:42;99608.63;;;17.29;52.50
62694;BME280;48759;52.544;13.418;2023-03-25T09:57:17;99603.44;;;16.35;52.20
62694;BME280;48759;52.544;13.418;2023-03-25T09:59:45;99599.72;;;17.27;50.23
62694;BME280;48759;52.544;13.418;2023-03-25T10:02:24;99603.59;;;17.87;48.72
62694;BME280;48759;52.544;13.418;2023-03-25T10:05:13;99610.28;;;17.40;49.28
62694;BME280;48759;52.544;13.418;2023-03-25T10:07:49;99605.13;;;16.46;49.61
62694;BME280;48759;52.544;13.418;2023-03-25T10:10:26;99594.59;;;16.53;49.16
62694;BME280;48759;52.544;13.418;2023-03-25T10:13:01;99602.28;;;16.31;49.15
62694;BME280;48759;52.544;13.418;2023-03-25T10:15:35;99597.97;;;16.70;48.11
62694;BME280;48759;52.544;13.418;2023-03-25T10:18:13;99596.38;;;17.05;48.02
62694;BME280;48759;52.544;13.418;2023-03-25T10:20:51;99595.81;;;17.18;47.82
62694;BME280;48759;52.544;13.418;2023-03-25T10:23:21;99595.19;;;18.02;46.47
62694;BME280;48759;52.544;13.418;2023-03-25T10:25:55;99602.75;;;17.71;46.52
62694;BME280;48759;52.544;13.418;2023-03-25T10:28:27;99589.97;;;17.45;46.18
62694;BME280;48759;52.544;13.418;2023-03-25T10:30:57;99597.47;;;17.85;45.59
62694;BME280;48759;52.544;13.418;2023-03-25T10:33:28;99594.06;;;19.12;43.48
62694;BME280;48759;52.544;13.418;2023-03-25T10:36:01;99582.25;;;18.31;44.78
62694;BME280;48759;52.544;13.418;2023-03-25T10:38:29;99589.09;;;19.03;43.90
62694;BME280;48759;52.544;13.418;2023-03-25T10:41:04;99601.38;;;17.79;44.67
62694;BME280;48759;52.544;13.418;2023-03-25T10:43:38;99587.50;;;17.13;45.40
62694;BME280;48759;52.544;13.418;2023-03-25T10:46:12;99589.19;;;17.24;45.61
62694;BME280;48759;52.544;13.418;2023-03-25T10:48:41;99598.47;;;18.14;44.82
62694;BME280;48759;52.544;13.418;2023-03-25T10:51:13;99588.78;;;17.96;44.76
62694;BME280;48759;52.544;13.418;2023-03-25T10:53:41;99573.34;;;18.29;44.04
62694;BME280;48759;52.544;13.418;2023-03-25T10:56:13;99579.91;;;18.59;43.29
62694;BME280;48759;52.544;13.418;2023-03-25T10:58:42;99586.75;;;19.21;42.38
62694;BME280;48759;52.544;13.418;2023-03-25T11:01:12;99573.34;;;18.84;42.54
62694;BME280;48759;52.544;13.418;2023-03-25T11:03:41;99570.09;;;18.66;43.17
62694;BME280;48759;52.544;13.418;2023-03-25T11:06:19;99575.50;;;18.48;42.95
62694;BME280;48759;52.544;13.418;2023-03-25T11:09:10;99568.56;;;18.35;43.21
62694;BME280;48759;52.544;13.418;2023-03-25T11:11:38;99564.78;;;19.09;42.40
62694;BME280;48759;52.544;13.418;2023-03-25T11:14:06;99562.09;;;18.55;42.51
62694;BME280;48759;52.544;13.418;2023-03-25T11:16:39;99557.09;;;18.47;43.67
62694;BME280;48759;52.544;13.418;2023-03-25T11:19:08;99566.31;;;18.91;43.11
62694;BME280;48759;52.544;13.418;2023-03-25T11:21:45;99566.13;;;19.17;42.59
62694;BME280;48759;52.544;13.418;2023-03-25T11:24:13;99577.81;;;18.30;43.61
62694;BME280;48759;52.544;13.418;2023-03-25T11:26:45;99552.22;;;19.69;42.31
62694;BME280;48759;52.544;13.418;2023-03-25T11:29:15;99558.78;;;18.48;42.72
62694;BME280;48759;52.544;13.418;2023-03-25T11:31:42;99572.00;;;18.76;42.86
62694;BME280;48759;52.544;13.418;2023-03-25T11:34:16;99588.69;;;16.29;46.63
62694;BME280;48759;52.544;13.418;2023-03-25T11:36:51;99609.03;;;14.87;51.50
62694;BME280;48759;52.544;13.418;2023-03-25T11:39:25;99603.69;;;14.53;58.54
62694;BME280;48759;52.544;13.418;2023-03-25T11:41:53;99575.81;;;15.24;59.33
62694;BME280;48759;52.544;13.418;2023-03-25T11:44:22;99574.16;;;15.60;58.52
62694;BME280;48759;52.544;13.418;2023-03-25T11:46:54;99571.91;;;16.04;57.43
62694;BME280;48759;52.544;13.418;2023-03-25T11:49:22;99578.59;;;17.31;52.81
62694;BME280;48759;52.544;13.418;2023-03-25T11:51:56;99580.19;;;16.61;55.56
62694;BME280;48759;52.544;13.418;2023-03-25T11:54:26;99568.22;;;16.51;58.45
62694;BME280;48759;52.544;13.418;2023-03-25T11:56:55;99554.03;;;16.42;60.12
62694;BME280;48759;52.544;13.418;2023-03-25T11:59:23;99556.56;;;16.59;59.32
62694;BME280;48759;52.544;13.418;2023-03-25T12:01:59;99550.53;;;16.97;57.17
62694;BME280;48759;52.544;13.418;2023-03-25T12:04:27;99548.34;;;18.14;54.27
62694;BME280;48759;52.544;13.418;2023-03-25T12:06:59;99533.53;;;17.34;52.08
62694;BME280;48759;52.544;13.418;2023-03-25T12:09:28;99532.00;;;17.98;49.81
62694;BME280;48759;52.544;13.418;2023-03-25T12:12:09;99532.22;;;18.99;46.61
62694;BME280;48759;52.544;13.418;2023-03-25T12:14:51;99525.28;;;19.83;45.70
62694;BME280;48759;52.544;13.418;2023-03-25T12:17:28;99534.31;;;19.18;43.84
62694;BME280;48759;52.544;13.418;2023-03-25T12:20:04;99531.50;;;19.23;44.96
62694;BME280;48759;52.544;13.418;2023-03-25T12:22:47;99522.09;;;17.51;44.91
62694;BME280;48759;52.544;13.418;2023-03-25T12:25:24;99520.69;;;17.64;45.54
62694;BME280;48759;52.544;13.418;2023-03-25T12:28:14;99514.91;;;18.68;43.98
62694;BME280;48759;52.544;13.418;2023-03-25T12:30:54;99513.72;;;18.30;43.97
62694;BME280;48759;52.544;13.418;2023-03-25T12:33:40;99514.16;;;18.58;43.24
62694;BME280;48759;52.544;13.418;2023-03-25T12:36:24;99492.81;;;19.40;41.31
62694;BME280;48759;52.544;13.418;2023-03-25T12:39:00;99506.13;;;19.48;41.46
62694;BME280;48759;52.544;13.418;2023-03-25T12:41:30;99504.94;;;18.96;41.43
62694;BME280;48759;52.544;13.418;2023-03-25T12:44:03;99494.69;;;18.87;41.84
62694;BME280;48759;52.544;13.418;2023-03-25T12:46:54;99505.00;;;17.98;42.91
62694;BME280;48759;52.544;13.418;2023-03-25T12:49:36;99491.28;;;18.12;42.47
62694;BME280;48759;52.544;13.418;2023-03-25T12:52:14;99488.94;;;17.65;43.55
62694;BME280;48759;52.544;13.418;2023-03-25T12:54:57;99500.63;;;18.75;42.75
62694;BME280;48759;52.544;13.418;2023-03-25T12:57:40;99501.38;;;18.52;41.71
62694;BME280;48759;52.544;13.418;2023-03-25T13:00:20;99503.66;;;18.40;42.16
62694;BME280;48759;52.544;13.418;2023-03-25T13:03:13;99508.16;;;18.30;42.41
62694;BME280;48759;52.544;13.418;2023-03-25T13:05:49;99491.22;;;17.52;43.74
62694;BME280;48759;52.544;13.418;2023-03-25T13:08:22;99492.97;;;16.82;45.04
62694;BME280;48759;52.544;13.418;2023-03-25T13:11:00;99501.03;;;17.19;45.03
62694;BME280;48759;52.544;13.418;2023-03-25T13:13:32;99499.91;;;18.15;43.49